ADDS METAR Data INFO
IDs: Format: Raw Decoded Include TAF

Data at: 0432 UTC 21 Nov 2017

KLFK 210353Z AUTO 14003KT 10SM CLR 08/04 A3004 RMK AO2 SLP171 T00780039
KLFK 210253Z AUTO 13004KT 10SM CLR 08/04 A3005 RMK AO2 SLP175 T00830039 58007
KLFK 210153Z AUTO 14005KT 10SM CLR 09/04 A3006 RMK AO2 SLP178 T00890044
KLFK 210053Z AUTO 12004KT 10SM CLR 09/04 A3007 RMK AO2 SLP181 T00940044
KLFK 202353Z AUTO 11004KT 10SM CLR 11/06 A3007 RMK AO2 SLP182 T01110056 10172 20111 58006
KLFK 202253Z AUTO 16003KT 10SM CLR 14/04 A3008 RMK AO2 SLP183 T01390039
KLFK 202153Z AUTO 21009KT 10SM CLR 17/02 A3008 RMK AO2 SLP184 T01670022
KLFK 202053Z AUTO 21007KT 10SM CLR 17/01 A3009 RMK AO2 SLP186 T01670011 56041
KLFK 201953Z AUTO 18007G15KT 150V220 10SM CLR 17/01 A3012 RMK AO2 SLP199 T01670006
KLFK 201853Z AUTO 17009KT 10SM CLR 16/00 A3016 RMK AO2 SLP213 T01610000
KLFK 201753Z AUTO VRB05KT 10SM CLR 15/01 A3021 RMK AO2 SLP228 T01500011 10150 20028 58014
KLFK 201653Z AUTO 17007KT 10SM CLR 14/02 A3024 RMK AO2 SLP238 T01390017
KLFK 201553Z AUTO 14008KT 10SM CLR 11/02 A3026 RMK AO2 SLP245 T01110017
KLFK 201453Z AUTO 14009KT 10SM CLR 08/03 A3025 RMK AO2 SLP243 T00830028 51012
KLFK 201353Z AUTO 00000KT 10SM CLR 06/04 A3024 RMK AO2 SLP240 T00560039
KLFK 201253Z AUTO 00000KT 10SM CLR 03/02 A3023 RMK AO2 SLP235 T00280022
KLFK 201153Z AUTO 00000KT 10SM CLR 03/02 A3021 RMK AO2 SLP231 T00280017 10050 20022 57003
KLFK 201053Z AUTO 00000KT 10SM CLR 03/03 A3021 RMK AO2 SLP230 T00330028
KLFK 200953Z AUTO 00000KT 10SM CLR 03/02 A3022 RMK AO2 SLP233 T00280022
KLFK 200853Z AUTO 00000KT 10SM CLR 03/03 A3022 RMK AO2 SLP233 T00330028 55006
KLFK 200753Z AUTO 00000KT 10SM CLR 04/03 A3022 RMK AO2 SLP232 T00390028
KLFK 200653Z AUTO 25004KT 9SM CLR 03/03 A3023 RMK AO2 SLP236 T00330028
KLFK 200553Z AUTO 00000KT 10SM CLR 05/03 A3024 RMK AO2 SLP239 T00500028 10106 20050 401780044 58003
KLFK 200453Z AUTO 00000KT 10SM CLR 05/03 A3025 RMK AO2 SLP243 T00500028
KLFK 200353Z AUTO 00000KT 10SM CLR 06/03 A3026 RMK AO2 SLP244 T00610033
KLFK 200253Z AUTO 00000KT 9SM CLR 07/03 A3025 RMK AO2 SLP243 T00670033 51009
KLFK 200153Z AUTO 00000KT 10SM CLR 08/03 A3024 RMK AO2 SLP241 T00830033
KLFK 200053Z AUTO 00000KT 10SM CLR 09/03 A3024 RMK AO2 SLP238 T00940033
KLFK 192353Z AUTO 00000KT 10SM CLR 10/04 A3022 RMK AO2 SLP233 60000 T01000039 10178 20100 56003
KLFK 192253Z AUTO 00000KT 10SM CLR 15/M02 A3022 RMK AO2 SLP232 T01501017
KLFK 192153Z AUTO VRB04KT 10SM CLR 17/M02 A3023 RMK AO2 SLP234 T01671022
KLFK 192053Z AUTO 36003KT 10SM CLR 17/M02 A3023 RMK AO2 RAE01 SLP235 P0000 60000 T01721022 56027
KLFK 191953Z AUTO VRB03KT 10SM -RA CLR 17/M03 A3024 RMK AO2 RAB48 SLP240 P0000 T01721028
KLFK 191853Z AUTO VRB05KT 10SM CLR 17/M02 A3028 RMK AO2 SLP251 T01721017
KLFK 191753Z AUTO 01010KT 10SM CLR 16/00 A3031 RMK AO2 SLP261 T01610000 10161 20044 58012
KLFK 191653Z AUTO 36009G15KT 10SM CLR 15/01 A3035 RMK AO2 SLP274 T01500011